sensor_id;sensor_type;location;lat;lon;timestamp;P1;durP1;ratioP1;P2;durP2;ratioP2
18170;SDS011;9210;48.358;10.902;2022-09-27T00:01:59;4.73;;;1.60;;
18170;SDS011;9210;48.358;10.902;2022-09-27T00:04:27;2.60;;;1.10;;
18170;SDS011;9210;48.358;10.902;2022-09-27T00:06:56;5.80;;;1.30;;
18170;SDS011;9210;48.358;10.902;2022-09-27T00:09:24;3.13;;;1.30;;
18170;SDS011;9210;48.358;10.902;2022-09-27T00:11:54;2.13;;;1.37;;
18170;SDS011;9210;48.358;10.902;2022-09-27T00:14:22;1.17;;;1.00;;
18170;SDS011;9210;48.358;10.902;2022-09-27T00:16:51;2.90;;;1.40;;
18170;SDS011;9210;48.358;10.902;2022-09-27T00:19:20;2.50;;;1.37;;
18170;SDS011;9210;48.358;10.902;2022-09-27T00:21:49;3.13;;;1.27;;
18170;SDS011;9210;48.358;10.902;2022-09-27T00:24:18;2.23;;;1.40;;
18170;SDS011;9210;48.358;10.902;2022-09-27T00:26:48;1.63;;;1.10;;
18170;SDS011;9210;48.358;10.902;2022-09-27T00:29:18;3.10;;;1.37;;
18170;SDS011;9210;48.358;10.902;2022-09-27T00:31:47;5.17;;;1.50;;
18170;SDS011;9210;48.358;10.902;2022-09-27T00:34:17;3.43;;;1.53;;
18170;SDS011;9210;48.358;10.902;2022-09-27T00:36:46;2.63;;;1.80;;
18170;SDS011;9210;48.358;10.902;2022-09-27T00:39:15;2.20;;;1.50;;
18170;SDS011;9210;48.358;10.902;2022-09-27T00:41:44;1.73;;;1.37;;
18170;SDS011;9210;48.358;10.902;2022-09-27T00:47:05;5.23;;;1.60;;
18170;SDS011;9210;48.358;10.902;2022-09-27T00:49:35;2.93;;;1.70;;
18170;SDS011;9210;48.358;10.902;2022-09-27T00:52:06;3.40;;;1.70;;
18170;SDS011;9210;48.358;10.902;2022-09-27T00:54:35;3.73;;;1.50;;
18170;SDS011;9210;48.358;10.902;2022-09-27T00:57:06;5.03;;;1.50;;
18170;SDS011;9210;48.358;10.902;2022-09-27T00:59:34;2.83;;;1.40;;
18170;SDS011;9210;48.358;10.902;2022-09-27T01:02:05;2.47;;;1.63;;
18170;SDS011;9210;48.358;10.902;2022-09-27T01:04:34;2.67;;;1.50;;
18170;SDS011;9210;48.358;10.902;2022-09-27T01:07:04;3.97;;;1.50;;
18170;SDS011;9210;48.358;10.902;2022-09-27T01:09:33;3.50;;;1.33;;
18170;SDS011;9210;48.358;10.902;2022-09-27T01:12:04;3.60;;;1.40;;
18170;SDS011;9210;48.358;10.902;2022-09-27T01:14:40;1.87;;;1.20;;
18170;SDS011;9210;48.358;10.902;2022-09-27T01:17:16;2.57;;;1.33;;
18170;SDS011;9210;48.358;10.902;2022-09-27T01:20:06;2.33;;;1.30;;
18170;SDS011;9210;48.358;10.902;2022-09-27T01:22:41;2.27;;;1.40;;
18170;SDS011;9210;48.358;10.902;2022-09-27T01:25:23;3.47;;;1.57;;
18170;SDS011;9210;48.358;10.902;2022-09-27T01:28:05;3.83;;;1.23;;
18170;SDS011;9210;48.358;10.902;2022-09-27T01:30:38;1.57;;;1.10;;
18170;SDS011;9210;48.358;10.902;2022-09-27T01:33:23;1.60;;;1.20;;
18170;SDS011;9210;48.358;10.902;2022-09-27T01:35:56;1.60;;;1.07;;
18170;SDS011;9210;48.358;10.902;2022-09-27T01:38:28;1.90;;;1.20;;
18170;SDS011;9210;48.358;10.902;2022-09-27T01:41:00;1.43;;;1.00;;
18170;SDS011;9210;48.358;10.902;2022-09-27T01:43:39;1.93;;;1.03;;
18170;SDS011;9210;48.358;10.902;2022-09-27T01:46:14;2.83;;;1.00;;
18170;SDS011;9210;48.358;10.902;2022-09-27T01:49:03;3.50;;;1.10;;
18170;SDS011;9210;48.358;10.902;2022-09-27T01:51:34;1.80;;;1.07;;
18170;SDS011;9210;48.358;10.902;2022-09-27T01:54:04;1.57;;;1.20;;
18170;SDS011;9210;48.358;10.902;2022-09-27T01:56:46;1.63;;;1.03;;
18170;SDS011;9210;48.358;10.902;2022-09-27T01:59:23;3.73;;;1.17;;
18170;SDS011;9210;48.358;10.902;2022-09-27T02:02:16;1.73;;;1.23;;
18170;SDS011;9210;48.358;10.902;2022-09-27T02:05:21;2.00;;;1.20;;
18170;SDS011;9210;48.358;10.902;2022-09-27T02:07:57;2.13;;;1.17;;
18170;SDS011;9210;48.358;10.902;2022-09-27T02:10:29;3.07;;;1.20;;
18170;SDS011;9210;48.358;10.902;2022-09-27T02:13:02;3.33;;;1.20;;
18170;SDS011;9210;48.358;10.902;2022-09-27T02:15:33;1.77;;;1.10;;
18170;SDS011;9210;48.358;10.902;2022-09-27T02:18:23;2.23;;;1.23;;
18170;SDS011;9210;48.358;10.902;2022-09-27T02:20:54;3.20;;;1.30;;
18170;SDS011;9210;48.358;10.902;2022-09-27T02:23:25;2.47;;;1.30;;
18170;SDS011;9210;48.358;10.902;2022-09-27T02:26:06;1.47;;;1.10;;
18170;SDS011;9210;48.358;10.902;2022-09-27T02:28:38;2.03;;;1.10;;
18170;SDS011;9210;48.358;10.902;2022-09-27T02:31:09;4.13;;;1.20;;
18170;SDS011;9210;48.358;10.902;2022-09-27T02:33:40;3.07;;;1.23;;
18170;SDS011;9210;48.358;10.902;2022-09-27T02:36:11;3.30;;;1.20;;
18170;SDS011;9210;48.358;10.902;2022-09-27T02:38:40;1.40;;;1.13;;
18170;SDS011;9210;48.358;10.902;2022-09-27T02:41:13;2.70;;;1.27;;
18170;SDS011;9210;48.358;10.902;2022-09-27T02:43:42;2.17;;;1.20;;
18170;SDS011;9210;48.358;10.902;2022-09-27T02:46:24;2.60;;;1.50;;
18170;SDS011;9210;48.358;10.902;2022-09-27T02:49:01;1.20;;;1.10;;
18170;SDS011;9210;48.358;10.902;2022-09-27T02:51:41;3.73;;;1.40;;
18170;SDS011;9210;48.358;10.902;2022-09-27T02:54:12;2.40;;;1.53;;
18170;SDS011;9210;48.358;10.902;2022-09-27T02:57:17;3.57;;;1.50;;
18170;SDS011;9210;48.358;10.902;2022-09-27T03:00:09;2.37;;;1.40;;
18170;SDS011;9210;48.358;10.902;2022-09-27T03:03:09;1.50;;;1.20;;
18170;SDS011;9210;48.358;10.902;2022-09-27T03:06:09;2.50;;;1.40;;
18170;SDS011;9210;48.358;10.902;2022-09-27T03:08:38;2.73;;;1.40;;
18170;SDS011;9210;48.358;10.902;2022-09-27T03:11:07;2.50;;;1.40;;
18170;SDS011;9210;48.358;10.902;2022-09-27T03:13:35;2.40;;;1.47;;
18170;SDS011;9210;48.358;10.902;2022-09-27T03:16:25;3.60;;;1.40;;
18170;SDS011;9210;48.358;10.902;2022-09-27T03:19:08;2.60;;;1.57;;
18170;SDS011;9210;48.358;10.902;2022-09-27T03:21:57;2.60;;;1.50;;
18170;SDS011;9210;48.358;10.902;2022-09-27T03:24:26;2.37;;;1.53;;
18170;SDS011;9210;48.358;10.902;2022-09-27T03:26:54;2.03;;;1.40;;
18170;SDS011;9210;48.358;10.902;2022-09-27T03:29:23;2.90;;;1.40;;
18170;SDS011;9210;48.358;10.902;2022-09-27T03:32:01;3.37;;;1.37;;
18170;SDS011;9210;48.358;10.902;2022-09-27T03:35:05;3.87;;;1.70;;
18170;SDS011;9210;48.358;10.902;2022-09-27T03:37:35;2.20;;;1.40;;
18170;SDS011;9210;48.358;10.902;2022-09-27T03:40:04;2.20;;;1.40;;
18170;SDS011;9210;48.358;10.902;2022-09-27T03:42:32;2.10;;;1.50;;
18170;SDS011;9210;48.358;10.902;2022-09-27T03:45:01;4.13;;;1.50;;
18170;SDS011;9210;48.358;10.902;2022-09-27T03:47:29;2.13;;;1.40;;
18170;SDS011;9210;48.358;10.902;2022-09-27T03:49:58;1.90;;;1.30;;
18170;SDS011;9210;48.358;10.902;2022-09-27T03:52:26;3.67;;;1.63;;
18170;SDS011;9210;48.358;10.902;2022-09-27T03:54:56;1.90;;;1.40;;
18170;SDS011;9210;48.358;10.902;2022-09-27T03:57:29;3.27;;;1.40;;
18170;SDS011;9210;48.358;10.902;2022-09-27T03:59:57;2.00;;;1.40;;
18170;SDS011;9210;48.358;10.902;2022-09-27T04:02:38;2.27;;;1.40;;
18170;SDS011;9210;48.358;10.902;2022-09-27T04:05:21;2.07;;;1.33;;
18170;SDS011;9210;48.358;10.902;2022-09-27T04:07:54;2.57;;;1.37;;
18170;SDS011;9210;48.358;10.902;2022-09-27T04:10:24;2.37;;;1.37;;
18170;SDS011;9210;48.358;10.902;2022-09-27T04:12:53;2.60;;;1.23;;
18170;SDS011;9210;48.358;10.902;2022-09-27T04:15:24;1.70;;;1.17;;
18170;SDS011;9210;48.358;10.902;2022-09-27T04:18:11;2.80;;;1.30;;
18170;SDS011;9210;48.358;10.902;2022-09-27T04:20:58;1.90;;;1.20;;
18170;SDS011;9210;48.358;10.902;2022-09-27T04:23:28;3.07;;;1.27;;
18170;SDS011;9210;48.358;10.902;2022-09-27T04:25:58;1.80;;;1.27;;
18170;SDS011;9210;48.358;10.902;2022-09-27T04:28:45;2.80;;;1.20;;
18170;SDS011;9210;48.358;10.902;2022-09-27T04:31:19;1.20;;;1.10;;
18170;SDS011;9210;48.358;10.902;2022-09-27T04:34:00;1.10;;;1.00;;
18170;SDS011;9210;48.358;10.902;2022-09-27T04:36:32;2.30;;;1.10;;
18170;SDS011;9210;48.358;10.902;2022-09-27T04:39:06;1.87;;;1.00;;
18170;SDS011;9210;48.358;10.902;2022-09-27T04:41:40;3.87;;;1.00;;
18170;SDS011;9210;48.358;10.902;2022-09-27T04:44:08;2.13;;;1.10;;
18170;SDS011;9210;48.358;10.902;2022-09-27T04:46:39;1.53;;;0.97;;
18170;SDS011;9210;48.358;10.902;2022-09-27T04:49:09;1.43;;;1.00;;
18170;SDS011;9210;48.358;10.902;2022-09-27T04:51:38;0.80;;;0.77;;
18170;SDS011;9210;48.358;10.902;2022-09-27T04:54:06;1.43;;;0.90;;
18170;SDS011;9210;48.358;10.902;2022-09-27T04:56:44;1.00;;;0.90;;
18170;SDS011;9210;48.358;10.902;2022-09-27T04:59:14;2.10;;;0.70;;
18170;SDS011;9210;48.358;10.902;2022-09-27T05:01:43;3.60;;;0.87;;
18170;SDS011;9210;48.358;10.902;2022-09-27T05:04:11;1.53;;;0.73;;
18170;SDS011;9210;48.358;10.902;2022-09-27T05:06:45;2.53;;;1.00;;
18170;SDS011;9210;48.358;10.902;2022-09-27T05:09:26;1.70;;;0.73;;
18170;SDS011;9210;48.358;10.902;2022-09-27T05:11:56;2.27;;;0.70;;
18170;SDS011;9210;48.358;10.902;2022-09-27T05:14:31;1.83;;;0.90;;
18170;SDS011;9210;48.358;10.902;2022-09-27T05:17:09;2.73;;;0.80;;
18170;SDS011;9210;48.358;10.902;2022-09-27T05:19:48;1.90;;;0.90;;
18170;SDS011;9210;48.358;10.902;2022-09-27T05:22:49;1.57;;;0.90;;
18170;SDS011;9210;48.358;10.902;2022-09-27T05:25:17;3.43;;;1.20;;
18170;SDS011;9210;48.358;10.902;2022-09-27T05:27:48;1.20;;;0.90;;
18170;SDS011;9210;48.358;10.902;2022-09-27T05:30:17;2.83;;;1.20;;
18170;SDS011;9210;48.358;10.902;2022-09-27T05:32:49;1.93;;;1.20;;
18170;SDS011;9210;48.358;10.902;2022-09-27T05:35:41;2.43;;;1.20;;
18170;SDS011;9210;48.358;10.902;2022-09-27T05:38:11;3.10;;;1.23;;
18170;SDS011;9210;48.358;10.902;2022-09-27T05:40:43;1.30;;;0.93;;
18170;SDS011;9210;48.358;10.902;2022-09-27T05:43:15;1.13;;;0.90;;
18170;SDS011;9210;48.358;10.902;2022-09-27T05:45:44;2.77;;;1.07;;
18170;SDS011;9210;48.358;10.902;2022-09-27T05:48:16;1.83;;;1.00;;
18170;SDS011;9210;48.358;10.902;2022-09-27T05:50:58;3.90;;;1.20;;
18170;SDS011;9210;48.358;10.902;2022-09-27T05:53:31;2.13;;;0.90;;
18170;SDS011;9210;48.358;10.902;2022-09-27T05:56:02;1.77;;;0.93;;
18170;SDS011;9210;48.358;10.902;2022-09-27T05:58:52;1.47;;;0.90;;
18170;SDS011;9210;48.358;10.902;2022-09-27T06:01:21;0.97;;;0.80;;
18170;SDS011;9210;48.358;10.902;2022-09-27T06:04:19;2.33;;;1.00;;
18170;SDS011;9210;48.358;10.902;2022-09-27T06:07:13;3.60;;;0.93;;
18170;SDS011;9210;48.358;10.902;2022-09-27T06:09:42;1.77;;;0.97;;
18170;SDS011;9210;48.358;10.902;2022-09-27T06:12:11;1.73;;;1.03;;
18170;SDS011;9210;48.358;10.902;2022-09-27T06:14:41;5.23;;;1.40;;
18170;SDS011;9210;48.358;10.902;2022-09-27T06:17:15;4.93;;;1.20;;
18170;SDS011;9210;48.358;10.902;2022-09-27T06:19:44;2.80;;;1.00;;
18170;SDS011;9210;48.358;10.902;2022-09-27T06:22:13;2.53;;;0.87;;
18170;SDS011;9210;48.358;10.902;2022-09-27T06:24:51;3.10;;;1.10;;
18170;SDS011;9210;48.358;10.902;2022-09-27T06:27:23;2.30;;;0.90;;
18170;SDS011;9210;48.358;10.902;2022-09-27T06:30:20;5.43;;;1.00;;
18170;SDS011;9210;48.358;10.902;2022-09-27T06:32:54;2.23;;;0.97;;
18170;SDS011;9210;48.358;10.902;2022-09-27T06:35:37;1.90;;;1.00;;
18170;SDS011;9210;48.358;10.902;2022-09-27T06:38:06;1.80;;;1.10;;
18170;SDS011;9210;48.358;10.902;2022-09-27T06:40:44;1.40;;;0.90;;
18170;SDS011;9210;48.358;10.902;2022-09-27T06:43:28;3.63;;;1.20;;
18170;SDS011;9210;48.358;10.902;2022-09-27T06:46:18;2.73;;;1.10;;
18170;SDS011;9210;48.358;10.902;2022-09-27T06:49:05;2.40;;;1.03;;
18170;SDS011;9210;48.358;10.902;2022-09-27T06:51:34;3.83;;;1.17;;
18170;SDS011;9210;48.358;10.902;2022-09-27T06:54:03;2.70;;;1.30;;
18170;SDS011;9210;48.358;10.902;2022-09-27T06:56:31;4.73;;;1.60;;
18170;SDS011;9210;48.358;10.902;2022-09-27T06:59:00;2.27;;;1.03;;
18170;SDS011;9210;48.358;10.902;2022-09-27T07:01:50;2.70;;;1.00;;
18170;SDS011;9210;48.358;10.902;2022-09-27T07:04:24;1.90;;;1.00;;
18170;SDS011;9210;48.358;10.902;2022-09-27T07:07:27;7.00;;;1.23;;
18170;SDS011;9210;48.358;10.902;2022-09-27T07:09:56;8.37;;;1.40;;
18170;SDS011;9210;48.358;10.902;2022-09-27T07:12:25;2.87;;;1.10;;
18170;SDS011;9210;48.358;10.902;2022-09-27T07:14:54;3.53;;;1.33;;
18170;SDS011;9210;48.358;10.902;2022-09-27T07:17:24;1.93;;;1.10;;
18170;SDS011;9210;48.358;10.902;2022-09-27T07:19:53;3.83;;;1.03;;
18170;SDS011;9210;48.358;10.902;2022-09-27T07:22:23;7.23;;;1.43;;
18170;SDS011;9210;48.358;10.902;2022-09-27T07:24:56;2.80;;;1.00;;
18170;SDS011;9210;48.358;10.902;2022-09-27T07:27:25;3.63;;;0.93;;
18170;SDS011;9210;48.358;10.902;2022-09-27T07:29:54;2.70;;;1.20;;
18170;SDS011;9210;48.358;10.902;2022-09-27T07:32:25;3.80;;;1.27;;
18170;SDS011;9210;48.358;10.902;2022-09-27T07:34:53;3.00;;;0.90;;
18170;SDS011;9210;48.358;10.902;2022-09-27T07:37:25;3.07;;;1.00;;
18170;SDS011;9210;48.358;10.902;2022-09-27T07:39:54;1.00;;;0.90;;
18170;SDS011;9210;48.358;10.902;2022-09-27T07:42:23;2.50;;;0.77;;
18170;SDS011;9210;48.358;10.902;2022-09-27T07:44:56;2.40;;;0.80;;
18170;SDS011;9210;48.358;10.902;2022-09-27T07:47:26;3.43;;;0.80;;
18170;SDS011;9210;48.358;10.902;2022-09-27T07:50:03;3.63;;;1.00;;
18170;SDS011;9210;48.358;10.902;2022-09-27T07:52:40;2.83;;;0.90;;
18170;SDS011;9210;48.358;10.902;2022-09-27T07:55:29;2.27;;;0.77;;
18170;SDS011;9210;48.358;10.902;2022-09-27T07:58:05;1.87;;;0.87;;
18170;SDS011;9210;48.358;10.902;2022-09-27T08:00:35;3.43;;;0.80;;
18170;SDS011;9210;48.358;10.902;2022-09-27T08:03:09;2.10;;;0.80;;
18170;SDS011;9210;48.358;10.902;2022-09-27T08:05:40;4.13;;;1.03;;
18170;SDS011;9210;48.358;10.902;2022-09-27T08:08:09;1.37;;;0.70;;
18170;SDS011;9210;48.358;10.902;2022-09-27T08:10:37;2.87;;;1.00;;
18170;SDS011;9210;48.358;10.902;2022-09-27T08:13:10;3.60;;;1.00;;
18170;SDS011;9210;48.358;10.902;2022-09-27T08:15:39;3.53;;;0.90;;
18170;SDS011;9210;48.358;10.902;2022-09-27T08:18:09;2.83;;;0.90;;
18170;SDS011;9210;48.358;10.902;2022-09-27T08:21:01;3.93;;;0.90;;
18170;SDS011;9210;48.358;10.902;2022-09-27T08:23:48;2.30;;;1.00;;
18170;SDS011;9210;48.358;10.902;2022-09-27T08:26:21;2.03;;;0.80;;
18170;SDS011;9210;48.358;10.902;2022-09-27T08:28:52;4.97;;;1.20;;
18170;SDS011;9210;48.358;10.902;2022-09-27T08:31:24;2.00;;;0.93;;
18170;SDS011;9210;48.358;10.902;2022-09-27T08:33:56;2.63;;;1.00;;
18170;SDS011;9210;48.358;10.902;2022-09-27T08:36:25;2.87;;;0.97;;
18170;SDS011;9210;48.358;10.902;2022-09-27T08:38:54;2.17;;;0.93;;
18170;SDS011;9210;48.358;10.902;2022-09-27T08:41:32;2.37;;;1.00;;
18170;SDS011;9210;48.358;10.902;2022-09-27T08:44:09;2.37;;;0.90;;
18170;SDS011;9210;48.358;10.902;2022-09-27T08:46:50;0.70;;;0.70;;
18170;SDS011;9210;48.358;10.902;2022-09-27T08:49:23;4.90;;;0.90;;
18170;SDS011;9210;48.358;10.902;2022-09-27T08:51:54;2.93;;;1.00;;
18170;SDS011;9210;48.358;10.902;2022-09-27T08:54:23;0.90;;;0.70;;
18170;SDS011;9210;48.358;10.902;2022-09-27T08:56:56;1.77;;;0.60;;
18170;SDS011;9210;48.358;10.902;2022-09-27T08:59:29;1.47;;;0.80;;
18170;SDS011;9210;48.358;10.902;2022-09-27T09:01:58;2.13;;;1.00;;
18170;SDS011;9210;48.358;10.902;2022-09-27T09:04:40;1.33;;;0.50;;
18170;SDS011;9210;48.358;10.902;2022-09-27T09:07:11;2.13;;;0.67;;
18170;SDS011;9210;48.358;10.902;2022-09-27T09:09:44;3.60;;;0.70;;
18170;SDS011;9210;48.358;10.902;2022-09-27T09:12:20;1.17;;;0.60;;
18170;SDS011;9210;48.358;10.902;2022-09-27T09:15:24;3.07;;;0.80;;
18170;SDS011;9210;48.358;10.902;2022-09-27T09:18:02;2.30;;;0.67;;
18170;SDS011;9210;48.358;10.902;2022-09-27T09:20:52;4.47;;;0.70;;
18170;SDS011;9210;48.358;10.902;2022-09-27T09:26:08;2.47;;;0.60;;
18170;SDS011;9210;48.358;10.902;2022-09-27T09:28:44;1.50;;;0.60;;
18170;SDS011;9210;48.358;10.902;2022-09-27T09:31:18;1.77;;;0.80;;
18170;SDS011;9210;48.358;10.902;2022-09-27T09:33:51;1.07;;;0.60;;
18170;SDS011;9210;48.358;10.902;2022-09-27T09:36:24;2.30;;;0.60;;
18170;SDS011;9210;48.358;10.902;2022-09-27T09:38:54;1.80;;;0.77;;
18170;SDS011;9210;48.358;10.902;2022-09-27T09:41:25;2.23;;;0.93;;
18170;SDS011;9210;48.358;10.902;2022-09-27T09:43:55;1.00;;;0.60;;
18170;SDS011;9210;48.358;10.902;2022-09-27T09:46:27;0.83;;;0.60;;
18170;SDS011;9210;48.358;10.902;2022-09-27T09:48:59;4.17;;;0.67;;
18170;SDS011;9210;48.358;10.902;2022-09-27T09:51:32;1.50;;;0.80;;
18170;SDS011;9210;48.358;10.902;2022-09-27T09:54:03;1.80;;;1.00;;
18170;SDS011;9210;48.358;10.902;2022-09-27T09:56:37;2.13;;;0.93;;
18170;SDS011;9210;48.358;10.902;2022-09-27T09:59:11;2.37;;;0.80;;
18170;SDS011;9210;48.358;10.902;2022-09-27T10:01:44;2.87;;;0.93;;
18170;SDS011;9210;48.358;10.902;2022-09-27T10:04:16;0.63;;;0.60;;
18170;SDS011;9210;48.358;10.902;2022-09-27T10:06:47;0.60;;;0.50;;
18170;SDS011;9210;48.358;10.902;2022-09-27T10:09:16;2.43;;;0.67;;
18170;SDS011;9210;48.358;10.902;2022-09-27T10:12:12;1.17;;;0.50;;
18170;SDS011;9210;48.358;10.902;2022-09-27T10:14:45;0.73;;;0.50;;
18170;SDS011;9210;48.358;10.902;2022-09-27T10:17:17;1.67;;;0.57;;
18170;SDS011;9210;48.358;10.902;2022-09-27T10:19:46;1.40;;;0.60;;
18170;SDS011;9210;48.358;10.902;2022-09-27T10:22:18;0.50;;;0.43;;
18170;SDS011;9210;48.358;10.902;2022-09-27T10:24:55;1.07;;;0.50;;
18170;SDS011;9210;48.358;10.902;2022-09-27T10:27:51;1.90;;;0.47;;
18170;SDS011;9210;48.358;10.902;2022-09-27T10:30:26;1.43;;;0.60;;
18170;SDS011;9210;48.358;10.902;2022-09-27T10:32:59;0.90;;;0.60;;
18170;SDS011;9210;48.358;10.902;2022-09-27T10:35:44;1.67;;;0.63;;
18170;SDS011;9210;48.358;10.902;2022-09-27T10:38:29;0.73;;;0.40;;
18170;SDS011;9210;48.358;10.902;2022-09-27T10:41:15;0.60;;;0.50;;
18170;SDS011;9210;48.358;10.902;2022-09-27T10:43:44;1.40;;;0.53;;
18170;SDS011;9210;48.358;10.902;2022-09-27T10:46:24;0.70;;;0.57;;
18170;SDS011;9210;48.358;10.902;2022-09-27T10:49:16;0.63;;;0.47;;
18170;SDS011;9210;48.358;10.902;2022-09-27T10:51:48;2.60;;;0.63;;
18170;SDS011;9210;48.358;10.902;2022-09-27T10:54:22;1.93;;;0.70;;
18170;SDS011;9210;48.358;10.902;2022-09-27T10:56:54;2.20;;;0.77;;
18170;SDS011;9210;48.358;10.902;2022-09-27T10:59:23;2.70;;;0.70;;
18170;SDS011;9210;48.358;10.902;2022-09-27T11:01:53;0.80;;;0.60;;
18170;SDS011;9210;48.358;10.902;2022-09-27T11:04:29;1.07;;;0.70;;
18170;SDS011;9210;48.358;10.902;2022-09-27T11:07:06;0.80;;;0.70;;
18170;SDS011;9210;48.358;10.902;2022-09-27T11:09:45;1.27;;;0.50;;
18170;SDS011;9210;48.358;10.902;2022-09-27T11:12:15;1.47;;;0.70;;
18170;SDS011;9210;48.358;10.902;2022-09-27T11:14:51;2.23;;;0.90;;
18170;SDS011;9210;48.358;10.902;2022-09-27T11:17:23;2.77;;;0.70;;
18170;SDS011;9210;48.358;10.902;2022-09-27T11:20:16;2.30;;;0.90;;
18170;SDS011;9210;48.358;10.902;2022-09-27T11:22:54;2.10;;;0.70;;
18170;SDS011;9210;48.358;10.902;2022-09-27T11:25:31;2.20;;;1.07;;
18170;SDS011;9210;48.358;10.902;2022-09-27T11:28:06;1.60;;;0.80;;
18170;SDS011;9210;48.358;10.902;2022-09-27T11:30:41;2.17;;;1.07;;
18170;SDS011;9210;48.358;10.902;2022-09-27T11:33:34;1.50;;;0.90;;
18170;SDS011;9210;48.358;10.902;2022-09-27T11:36:07;2.40;;;0.70;;
18170;SDS011;9210;48.358;10.902;2022-09-27T11:38:44;2.07;;;0.90;;
18170;SDS011;9210;48.358;10.902;2022-09-27T11:41:29;1.43;;;0.90;;
18170;SDS011;9210;48.358;10.902;2022-09-27T11:44:05;2.20;;;0.90;;
18170;SDS011;9210;48.358;10.902;2022-09-27T11:46:37;2.93;;;0.70;;
18170;SDS011;9210;48.358;10.902;2022-09-27T11:49:22;1.23;;;0.70;;
18170;SDS011;9210;48.358;10.902;2022-09-27T11:52:05;1.20;;;0.83;;
18170;SDS011;9210;48.358;10.902;2022-09-27T11:54:43;0.97;;;0.70;;
18170;SDS011;9210;48.358;10.902;2022-09-27T11:57:17;1.17;;;0.80;;
18170;SDS011;9210;48.358;10.902;2022-09-27T12:00:08;1.00;;;0.90;;
18170;SDS011;9210;48.358;10.902;2022-09-27T12:03:05;1.67;;;0.73;;
18170;SDS011;9210;48.358;10.902;2022-09-27T12:05:41;5.03;;;0.90;;
18170;SDS011;9210;48.358;10.902;2022-09-27T12:08:27;2.10;;;0.80;;
18170;SDS011;9210;48.358;10.902;2022-09-27T12:10:58;1.23;;;0.80;;
18170;SDS011;9210;48.358;10.902;2022-09-27T12:13:32;2.23;;;1.00;;
18170;SDS011;9210;48.358;10.902;2022-09-27T12:16:01;1.27;;;0.90;;
18170;SDS011;9210;48.358;10.902;2022-09-27T12:18:35;1.80;;;1.00;;
18170;SDS011;9210;48.358;10.902;2022-09-27T12:21:17;1.53;;;0.83;;
18170;SDS011;9210;48.358;10.902;2022-09-27T12:23:47;1.57;;;1.00;;
18170;SDS011;9210;48.358;10.902;2022-09-27T12:26:35;2.03;;;1.10;;
18170;SDS011;9210;48.358;10.902;2022-09-27T12:29:09;3.27;;;1.30;;
18170;SDS011;9210;48.358;10.902;2022-09-27T12:31:40;1.47;;;1.00;;
18170;SDS011;9210;48.358;10.902;2022-09-27T12:34:12;3.53;;;1.40;;
18170;SDS011;9210;48.358;10.902;2022-09-27T12:36:46;4.93;;;1.30;;
18170;SDS011;9210;48.358;10.902;2022-09-27T12:39:17;3.20;;;1.37;;
18170;SDS011;9210;48.358;10.902;2022-09-27T12:41:55;2.87;;;1.20;;
18170;SDS011;9210;48.358;10.902;2022-09-27T12:44:39;3.30;;;1.23;;
18170;SDS011;9210;48.358;10.902;2022-09-27T12:50:00;2.90;;;1.50;;
18170;SDS011;9210;48.358;10.902;2022-09-27T12:52:33;3.20;;;1.20;;
18170;SDS011;9210;48.358;10.902;2022-09-27T12:55:22;1.90;;;0.93;;
18170;SDS011;9210;48.358;10.902;2022-09-27T12:58:02;1.33;;;0.80;;
18170;SDS011;9210;48.358;10.902;2022-09-27T13:00:36;0.90;;;0.80;;
18170;SDS011;9210;48.358;10.902;2022-09-27T13:03:25;0.93;;;0.63;;
18170;SDS011;9210;48.358;10.902;2022-09-27T13:06:11;1.83;;;0.60;;
18170;SDS011;9210;48.358;10.902;2022-09-27T13:08:58;3.27;;;0.57;;
18170;SDS011;9210;48.358;10.902;2022-09-27T13:11:35;1.43;;;0.60;;
18170;SDS011;9210;48.358;10.902;2022-09-27T13:14:09;2.00;;;0.50;;
18170;SDS011;9210;48.358;10.902;2022-09-27T13:16:44;2.73;;;0.70;;
18170;SDS011;9210;48.358;10.902;2022-09-27T13:19:36;1.27;;;0.60;;
18170;SDS011;9210;48.358;10.902;2022-09-27T13:22:07;1.93;;;0.60;;
18170;SDS011;9210;48.358;10.902;2022-09-27T13:24:55;1.53;;;0.67;;
18170;SDS011;9210;48.358;10.902;2022-09-27T13:27:43;1.07;;;0.50;;
18170;SDS011;9210;48.358;10.902;2022-09-27T13:36:23;1.30;;;0.60;;
18170;SDS011;9210;48.358;10.902;2022-09-27T13:42:27;1.40;;;0.63;;
18170;SDS011;9210;48.358;10.902;2022-09-27T13:45:03;2.10;;;0.90;;
18170;SDS011;9210;48.358;10.902;2022-09-27T13:47:39;2.67;;;0.60;;
18170;SDS011;9210;48.358;10.902;2022-09-27T13:50:21;4.23;;;0.70;;
18170;SDS011;9210;48.358;10.902;2022-09-27T13:52:59;1.07;;;0.60;;
18170;SDS011;9210;48.358;10.902;2022-09-27T13:55:40;0.67;;;0.60;;
18170;SDS011;9210;48.358;10.902;2022-09-27T13:58:16;3.43;;;0.77;;
18170;SDS011;9210;48.358;10.902;2022-09-27T14:00:50;1.20;;;0.60;;
18170;SDS011;9210;48.358;10.902;2022-09-27T14:03:21;2.20;;;0.60;;
18170;SDS011;9210;48.358;10.902;2022-09-27T14:05:54;3.77;;;0.60;;
18170;SDS011;9210;48.358;10.902;2022-09-27T14:08:27;2.30;;;0.77;;
18170;SDS011;9210;48.358;10.902;2022-09-27T14:10:56;1.40;;;0.70;;
18170;SDS011;9210;48.358;10.902;2022-09-27T14:13:25;1.03;;;0.50;;
18170;SDS011;9210;48.358;10.902;2022-09-27T14:16:01;1.40;;;0.60;;
18170;SDS011;9210;48.358;10.902;2022-09-27T14:18:34;2.20;;;0.70;;
18170;SDS011;9210;48.358;10.902;2022-09-27T14:21:08;1.73;;;0.60;;
18170;SDS011;9210;48.358;10.902;2022-09-27T14:23:51;3.40;;;0.70;;
18170;SDS011;9210;48.358;10.902;2022-09-27T14:26:23;3.07;;;0.90;;
18170;SDS011;9210;48.358;10.902;2022-09-27T14:28:52;0.97;;;0.70;;
18170;SDS011;9210;48.358;10.902;2022-09-27T14:31:28;1.60;;;0.83;;
18170;SDS011;9210;48.358;10.902;2022-09-27T14:34:03;2.00;;;0.70;;
18170;SDS011;9210;48.358;10.902;2022-09-27T14:36:34;2.50;;;0.70;;
18170;SDS011;9210;48.358;10.902;2022-09-27T14:39:30;2.40;;;0.77;;
18170;SDS011;9210;48.358;10.902;2022-09-27T14:42:16;1.20;;;0.50;;
18170;SDS011;9210;48.358;10.902;2022-09-27T14:44:46;1.13;;;0.70;;
18170;SDS011;9210;48.358;10.902;2022-09-27T14:47:16;1.93;;;0.70;;
18170;SDS011;9210;48.358;10.902;2022-09-27T14:49:45;2.50;;;0.70;;
18170;SDS011;9210;48.358;10.902;2022-09-27T14:52:16;2.30;;;0.70;;
18170;SDS011;9210;48.358;10.902;2022-09-27T14:54:55;1.87;;;0.70;;
18170;SDS011;9210;48.358;10.902;2022-09-27T14:57:25;1.67;;;0.80;;
18170;SDS011;9210;48.358;10.902;2022-09-27T14:59:56;3.33;;;1.10;;
18170;SDS011;9210;48.358;10.902;2022-09-27T15:02:25;4.93;;;1.30;;
18170;SDS011;9210;48.358;10.902;2022-09-27T15:04:54;5.20;;;1.10;;
18170;SDS011;9210;48.358;10.902;2022-09-27T15:07:22;4.10;;;1.10;;
18170;SDS011;9210;48.358;10.902;2022-09-27T15:09:51;3.17;;;1.17;;
18170;SDS011;9210;48.358;10.902;2022-09-27T15:12:24;2.90;;;1.17;;
18170;SDS011;9210;48.358;10.902;2022-09-27T15:14:53;6.37;;;1.20;;
18170;SDS011;9210;48.358;10.902;2022-09-27T15:17:24;2.23;;;0.80;;
18170;SDS011;9210;48.358;10.902;2022-09-27T15:19:57;1.43;;;0.77;;
18170;SDS011;9210;48.358;10.902;2022-09-27T15:22:39;5.80;;;1.10;;
18170;SDS011;9210;48.358;10.902;2022-09-27T15:25:19;1.03;;;0.70;;
18170;SDS011;9210;48.358;10.902;2022-09-27T15:27:51;1.00;;;0.70;;
18170;SDS011;9210;48.358;10.902;2022-09-27T15:30:24;3.10;;;1.00;;
18170;SDS011;9210;48.358;10.902;2022-09-27T15:32:56;1.47;;;0.80;;
18170;SDS011;9210;48.358;10.902;2022-09-27T15:35:26;1.77;;;0.80;;
18170;SDS011;9210;48.358;10.902;2022-09-27T15:43:33;1.17;;;0.80;;
18170;SDS011;9210;48.358;10.902;2022-09-27T15:46:03;1.37;;;0.73;;
18170;SDS011;9210;48.358;10.902;2022-09-27T15:48:32;2.30;;;0.77;;
18170;SDS011;9210;48.358;10.902;2022-09-27T15:51:03;2.03;;;0.70;;
18170;SDS011;9210;48.358;10.902;2022-09-27T15:53:51;1.00;;;0.80;;
18170;SDS011;9210;48.358;10.902;2022-09-27T15:56:19;1.23;;;0.70;;
18170;SDS011;9210;48.358;10.902;2022-09-27T15:58:49;1.87;;;0.80;;
18170;SDS011;9210;48.358;10.902;2022-09-27T16:01:19;1.03;;;0.67;;